• Join FlightAware (Why Join?)
  • Login
  • US Flag 
01:56AM EDT


 

Airport Tracker/Info


-or-


 

Live Flight TrackerFlight Track Log ✈ POE243 ✈ 10-May-2012 ✈ CYTZ - CYOW

Flight Track Log - Related Links

Times and Time Zones

All times are in EDT time to prevent confusion due to time zone crossing. See the POE243 flight status page for this flight to view local times or setup timezone preferences in your user account.

Time Position Orientation Groundspeed Altitude Reporting Facility
EDT Latitude Longitude Course Direction KTS MPH feet Rate Location/Type
06:55AM 43.6167 -79.4000 75° East 150 173 1,200  Level Toronto Center
07:00AM 43.6833 -79.0500 42° Northeast 300 345 11,200 1,920 Climbing Toronto Center
07:01AM 43.7500 -78.9667 44° Northeast 310 357 13,000 1,860 Climbing Toronto Center
07:02AM 43.8000 -78.9000 59° Northeast 320 368 15,000 2,160 Climbing Toronto Center
07:03AM 43.8500 -78.7833 65° Northeast 310 357 17,400 2,220 Climbing Toronto Center
07:04AM 43.8833 -78.6833 59° Northeast 310 357 19,500 1,980 Climbing Toronto Center
07:05AM 43.9333 -78.5667 77° East 310 357 21,400 1,680 Climbing Toronto Center
07:06AM 43.9500 -78.4667 59° Northeast 300 345 22,900 780 Climbing Toronto Center
07:07AM 44.0000 -78.3500 62° Northeast 320 368 23,000  Climbing Toronto Center
07:08AM 44.0500 -78.2167 59° Northeast 360 414 23,000  Level Toronto Center
07:09AM 44.1000 -78.1000 59° Northeast 370 426 23,000  Level Toronto Center
07:10AM 44.1500 -77.9833 59° Northeast 370 426 23,000  Level Toronto Center
07:11AM 44.2000 -77.8667 51° Northeast 370 426 23,000  Level Toronto Center
07:12AM 44.2667 -77.7500 59° Northeast 370 426 23,000  Level Toronto Center
07:13AM 44.3167 -77.6333 51° Northeast 370 426 23,000  Level Toronto Center
07:14AM 44.3833 -77.5167 73° East 370 426 23,000  Level Toronto Center
07:15AM 44.4167 -77.3667 47° Northeast 370 426 23,000  Level Toronto Center
07:16AM 44.4833 -77.2667 59° Northeast 370 426 23,000  Level Toronto Center
07:17AM 44.5333 -77.1500 55° Northeast 370 426 23,000  Level Toronto Center
07:18AM 44.6000 -77.0167 62° Northeast 370 426 23,000 -780 Level Toronto Center
07:19AM 44.6500 -76.8833 51° Northeast 380 437 21,500 -1,440 Descending Toronto Center
07:20AM 44.7167 -76.7667 47° Northeast 370 426 20,200 -1,200 Descending Toronto Center
07:21AM 44.7833 -76.6667 59° Northeast 360 414 19,100 -1,260 Descending Toronto Center
07:22AM 44.8333 -76.5500 59° Northeast 360 414 17,700 -1,200 Descending Toronto Center
07:23AM 44.8833 -76.4333 55° Northeast 360 414 16,800 -1,080 Descending Toronto Center
07:24AM 44.9333 -76.3333 73° East 360 414 15,600 -1,560 Descending Toronto Center
07:25AM 44.9667 -76.1833 80° East 360 414 13,700 -1,800 Descending Toronto Center
07:26AM 44.9833 -76.0500 68° East 350 403 12,000 -1,800 Descending Toronto Center
07:27AM 45.0167 -75.9333 65° Northeast 330 380 10,200 -1,680 Descending Toronto Center
07:28AM 45.0500 -75.8333 79° East 300 345 8,700 -1,500 Descending Toronto Center
07:29AM 45.0667 -75.7167 65° Northeast 280 322 7,200 -1,500 Descending Toronto Center
07:30AM 45.1000 -75.6167 90° East 270 311 5,800 -1,260 Descending Toronto Center
07:31AM 45.1000 -75.5167 65° Northeast 260 299 4,700 -1,080 Descending Toronto Center
07:32AM 45.1333 -75.4167 13° North 240 276 3,700 -900 Descending Toronto Center
07:33AM 45.1833 -75.4000 290° West 220 253 3,000 -360 Descending Toronto Center
07:34AM 45.2000 -75.4667 313° West 170 196 3,000 -300 Level Toronto Center
07:35AM 45.2333 -75.5167 325° Northwest 160 184 2,400 -660 Descending Toronto Center
07:36AM 45.2667 -75.5500 305° West 130 150 1,700 -720 Descending Toronto Center
07:37AM 45.2833 -75.5833 270° West 120 138 1,000 -660 Descending Toronto Center
07:38AM 45.2833 -75.6667 270° West 100 115 500 -600 Descending Montreal Center